createdAt,value
2017-10-11T00:01:50.410Z,99.90
2017-10-11T00:06:53.631Z,99.90
2017-10-11T00:11:56.811Z,99.90
2017-10-11T00:17:00.773Z,99.90
2017-10-11T00:22:03.977Z,99.90
2017-10-11T00:27:07.166Z,99.90
2017-10-11T00:32:10.349Z,99.90
2017-10-11T00:37:14.324Z,99.90
2017-10-11T00:42:17.530Z,99.90
2017-10-11T00:47:20.741Z,99.90
2017-10-11T00:52:23.930Z,99.90
2017-10-11T00:57:27.134Z,99.90
2017-10-11T01:02:31.201Z,99.90
2017-10-11T01:07:34.405Z,99.90
2017-10-11T01:12:37.573Z,99.90
2017-10-11T01:17:40.753Z,99.90
2017-10-11T01:22:44.691Z,99.90
2017-10-11T01:27:47.855Z,99.90
2017-10-11T01:32:51.035Z,99.90
2017-10-11T01:37:54.204Z,99.90
2017-10-11T01:42:57.391Z,99.90
2017-10-11T01:48:01.338Z,99.90
2017-10-11T01:53:04.509Z,99.90
2017-10-11T01:58:08.462Z,99.90
2017-10-11T02:03:11.662Z,99.90
2017-10-11T02:08:14.892Z,99.90
2017-10-11T02:13:18.097Z,99.90
2017-10-11T02:18:21.314Z,99.90
2017-10-11T02:23:24.535Z,99.90
2017-10-11T02:28:27.827Z,99.90
2017-10-11T02:33:31.013Z,99.90
2017-10-11T02:38:34.202Z,99.90
2017-10-11T02:43:38.153Z,99.90
2017-10-11T02:48:41.338Z,99.90
2017-10-11T02:53:45.300Z,99.90
2017-10-11T02:58:48.487Z,99.90
2017-10-11T03:03:51.704Z,99.90
2017-10-11T03:08:54.882Z,99.90
2017-10-11T03:13:58.081Z,99.90
2017-10-11T03:19:02.030Z,99.90
2017-10-11T03:24:05.244Z,99.90
2017-10-11T03:29:08.425Z,99.90
2017-10-11T03:34:11.630Z,99.90
2017-10-11T03:39:15.597Z,99.90
2017-10-11T03:44:19.635Z,99.90
2017-10-11T03:49:22.834Z,99.90
2017-10-11T03:54:26.044Z,99.90
2017-10-11T03:59:29.238Z,99.90
2017-10-11T04:04:32.432Z,99.90
2017-10-11T04:09:35.630Z,99.90
2017-10-11T04:14:38.825Z,99.90
2017-10-11T04:19:42.004Z,99.90
2017-10-11T04:24:45.208Z,99.90
2017-10-11T04:29:48.903Z,99.90
2017-10-11T04:34:52.090Z,99.90
2017-10-11T04:39:55.290Z,99.90
2017-10-11T04:44:58.478Z,99.90
2017-10-11T04:50:01.657Z,99.90
2017-10-11T04:55:05.625Z,99.90
2017-10-11T05:00:08.810Z,99.90
2017-10-11T05:05:12.012Z,99.90
2017-10-11T05:10:15.979Z,99.90
2017-10-11T05:15:19.161Z,99.90
2017-10-11T05:20:22.345Z,99.90
2017-10-11T05:25:26.298Z,99.90
2017-10-11T05:30:29.488Z,99.90
2017-10-11T05:35:32.686Z,99.90
2017-10-11T05:40:36.797Z,99.90
2017-10-11T05:45:40.777Z,99.90
2017-10-11T05:50:43.988Z,99.90
2017-10-11T05:55:47.202Z,99.90
2017-10-11T06:00:50.381Z,99.90
2017-10-11T06:05:53.578Z,99.90
2017-10-11T06:10:56.777Z,99.90
2017-10-11T06:15:59.986Z,99.90
2017-10-11T06:21:03.206Z,99.90
2017-10-11T06:26:06.412Z,99.90
2017-10-11T06:31:09.585Z,99.90
2017-10-11T06:36:13.553Z,99.90
2017-10-11T06:41:16.773Z,99.90
2017-10-11T06:46:20.716Z,99.90
2017-10-11T06:51:23.934Z,99.90
2017-10-11T06:56:27.128Z,98.80
2017-10-11T07:01:30.426Z,95.40
2017-10-11T07:06:33.605Z,96.50
2017-10-11T07:11:36.817Z,95.40
2017-10-11T07:16:40.003Z,93.10
2017-10-11T07:21:43.195Z,90.30
2017-10-11T07:26:47.949Z,91.40
2017-10-11T07:31:51.172Z,91.30
2017-10-11T07:36:54.383Z,91.00
2017-10-11T07:41:57.595Z,92.20
2017-10-11T07:47:00.766Z,91.90
2017-10-11T07:52:04.721Z,86.40
2017-10-11T07:57:07.917Z,86.40
2017-10-11T08:02:11.116Z,90.10
2017-10-11T08:07:14.322Z,90.70
2017-10-11T08:12:18.341Z,91.60
2017-10-11T08:17:21.530Z,91.50
2017-10-11T08:22:25.521Z,90.90
2017-10-11T08:27:28.703Z,90.90
2017-10-11T08:32:31.917Z,90.20
2017-10-11T08:37:35.132Z,90.10
2017-10-11T08:42:38.316Z,90.40
2017-10-11T08:47:41.502Z,91.70
2017-10-11T08:52:44.699Z,91.30
2017-10-11T08:57:48.637Z,91.80
2017-10-11T09:02:51.878Z,91.80
2017-10-11T09:07:55.146Z,93.20
2017-10-11T09:12:58.344Z,93.70
2017-10-11T09:18:02.291Z,93.70
2017-10-11T09:23:05.586Z,93.70
2017-10-11T09:28:08.790Z,94.20
2017-10-11T09:33:11.981Z,93.80
2017-10-11T09:38:15.926Z,94.90
2017-10-11T09:43:19.165Z,94.90
2017-10-11T09:48:22.348Z,90.80
2017-10-11T09:53:25.530Z,88.30
2017-10-11T09:58:30.671Z,86.60
2017-10-11T10:03:34.630Z,84.60
2017-10-11T10:08:37.815Z,84.60
2017-10-11T10:13:41.794Z,84.10
2017-10-11T10:18:44.992Z,84.00
2017-10-11T10:23:48.249Z,82.70
2017-10-11T10:28:52.214Z,79.90
2017-10-11T10:33:55.428Z,79.20
2017-10-11T10:38:58.610Z,79.40
2017-10-11T10:44:01.840Z,78.20
2017-10-11T10:49:05.069Z,78.50
2017-10-11T10:54:08.274Z,77.60
2017-10-11T10:59:11.456Z,77.80
2017-10-11T11:04:14.643Z,78.00
2017-10-11T11:09:17.850Z,76.20
2017-10-11T11:14:21.041Z,76.30
2017-10-11T11:19:24.246Z,76.90
2017-10-11T11:24:27.431Z,76.30
2017-10-11T11:29:31.377Z,74.90
2017-10-11T11:34:35.346Z,76.40
2017-10-11T11:39:38.548Z,76.30
2017-10-11T11:44:41.741Z,76.60
2017-10-11T11:49:44.941Z,76.70
2017-10-11T11:54:48.150Z,74.20
2017-10-11T11:59:51.334Z,73.40
2017-10-11T12:04:54.562Z,75.90
2017-10-11T12:09:57.714Z,72.90
2017-10-11T12:15:00.906Z,74.40
2017-10-11T12:20:04.084Z,74.00
2017-10-11T12:25:07.293Z,74.70
2017-10-11T12:30:10.497Z,74.50
2017-10-11T12:35:13.699Z,74.70
2017-10-11T12:40:16.892Z,74.60
2017-10-11T12:45:20.099Z,75.90
2017-10-11T12:50:23.294Z,75.60
2017-10-11T12:55:26.503Z,74.50
2017-10-11T13:00:29.722Z,75.90
2017-10-11T13:05:32.922Z,75.60
2017-10-11T13:10:36.110Z,74.60
2017-10-11T13:15:39.341Z,75.60
2017-10-11T13:20:42.558Z,75.00
2017-10-11T13:25:45.762Z,75.70
2017-10-11T13:30:48.964Z,75.40
2017-10-11T13:35:52.155Z,76.20
2017-10-11T13:40:55.376Z,76.10
2017-10-11T13:45:58.569Z,76.00
2017-10-11T13:51:01.779Z,77.40
2017-10-11T13:56:04.969Z,79.10
2017-10-11T14:01:08.145Z,79.60
2017-10-11T14:06:11.404Z,79.10
2017-10-11T14:11:14.734Z,79.20
2017-10-11T14:16:17.957Z,80.10
2017-10-11T14:21:21.155Z,79.80
2017-10-11T14:26:24.354Z,80.80
2017-10-11T14:31:27.712Z,79.90
2017-10-11T14:36:31.682Z,79.70
2017-10-11T14:41:34.896Z,79.80
2017-10-11T14:46:38.103Z,79.90
2017-10-11T14:51:41.390Z,79.70
2017-10-11T14:56:44.587Z,79.90
2017-10-11T15:01:47.775Z,79.60
2017-10-11T15:06:51.766Z,79.90
2017-10-11T15:11:54.970Z,79.90
2017-10-11T15:16:58.160Z,80.10
2017-10-11T15:22:01.379Z,80.10
2017-10-11T15:27:04.585Z,80.50
2017-10-11T15:32:07.806Z,80.90
2017-10-11T15:37:10.984Z,81.60
2017-10-11T15:42:14.154Z,82.30
2017-10-11T15:47:18.479Z,82.30
2017-10-11T15:52:21.696Z,82.70
2017-10-11T15:57:24.937Z,83.20
2017-10-11T16:02:28.164Z,83.60
2017-10-11T16:07:31.349Z,83.00
2017-10-11T16:12:34.569Z,84.00
2017-10-11T16:17:37.736Z,83.60
2017-10-11T16:22:40.945Z,83.10
2017-10-11T16:27:44.402Z,82.90
2017-10-11T16:32:47.625Z,82.60
2017-10-11T16:37:51.612Z,83.30
2017-10-11T16:42:54.844Z,83.30
2017-10-11T16:47:58.039Z,82.90
2017-10-11T16:53:01.234Z,82.60
2017-10-11T16:58:04.417Z,82.80
2017-10-11T17:03:07.602Z,82.20
2017-10-11T17:08:10.830Z,81.70
2017-10-11T17:13:14.058Z,81.60
2017-10-11T17:18:17.266Z,82.40
2017-10-11T17:23:20.476Z,82.70
2017-10-11T17:28:23.649Z,83.60
2017-10-11T17:33:26.878Z,84.40
2017-10-11T17:38:30.084Z,85.20
2017-10-11T17:43:33.293Z,85.30
2017-10-11T17:48:36.516Z,85.50
2017-10-11T17:53:39.731Z,85.40
2017-10-11T17:58:42.916Z,85.90
2017-10-11T18:03:46.161Z,86.30
2017-10-11T18:08:49.347Z,86.80
2017-10-11T18:13:53.696Z,87.50
2017-10-11T18:18:56.925Z,87.80
2017-10-11T18:24:00.162Z,87.10
2017-10-11T18:29:03.417Z,87.20
2017-10-11T18:34:06.643Z,87.30
2017-10-11T18:39:09.897Z,88.20
2017-10-11T18:44:13.091Z,88.40
2017-10-11T18:49:16.314Z,88.70
2017-10-11T18:54:19.537Z,89.20
2017-10-11T18:59:22.748Z,90.00
2017-10-11T19:04:26.004Z,90.30
2017-10-11T19:09:29.219Z,93.40
2017-10-11T19:14:32.430Z,94.60
2017-10-11T19:19:35.652Z,95.40
2017-10-11T19:24:38.849Z,95.80
2017-10-11T19:29:42.065Z,97.20
2017-10-11T19:34:45.275Z,97.10
2017-10-11T19:39:48.604Z,98.40
2017-10-11T19:44:51.832Z,97.50
2017-10-11T19:49:55.823Z,93.50
2017-10-11T19:54:59.035Z,93.50
2017-10-11T20:00:18.948Z,96.50
2017-10-11T20:05:22.144Z,98.90
2017-10-11T20:10:25.349Z,99.70
2017-10-11T20:15:28.574Z,98.20
2017-10-11T20:20:32.569Z,97.70
2017-10-11T20:25:35.778Z,97.00
2017-10-11T20:30:38.961Z,96.00
2017-10-11T20:35:42.175Z,95.60
2017-10-11T20:40:45.381Z,95.00
2017-10-11T20:45:48.603Z,96.00
2017-10-11T20:50:51.821Z,96.20
2017-10-11T20:55:55.095Z,96.70
2017-10-11T21:00:58.336Z,97.40
2017-10-11T21:06:01.561Z,97.70
2017-10-11T21:11:05.519Z,98.70
2017-10-11T21:16:08.711Z,98.70
2017-10-11T21:21:12.665Z,99.50
2017-10-11T21:26:15.887Z,99.50
2017-10-11T21:31:19.102Z,99.90
2017-10-11T21:36:22.303Z,99.50
2017-10-11T21:41:25.538Z,99.90
2017-10-11T21:46:28.757Z,98.60
2017-10-11T21:51:31.971Z,98.40
2017-10-11T21:56:35.954Z,99.30
2017-10-11T22:01:39.173Z,99.20
2017-10-11T22:06:42.376Z,99.30
2017-10-11T22:11:45.624Z,99.30
2017-10-11T22:16:48.847Z,99.80
2017-10-11T22:21:52.114Z,99.90
2017-10-11T22:26:56.069Z,99.90
2017-10-11T22:31:59.292Z,99.90
2017-10-11T22:37:02.550Z,99.90
2017-10-11T22:42:06.542Z,99.90
2017-10-11T22:47:09.729Z,99.90
2017-10-11T22:52:12.938Z,99.90
2017-10-11T22:57:16.117Z,99.90
2017-10-11T23:02:19.319Z,99.90
2017-10-11T23:07:23.304Z,99.90
2017-10-11T23:12:26.550Z,99.90
2017-10-11T23:17:30.512Z,99.90
2017-10-11T23:22:33.704Z,99.90
2017-10-11T23:27:38.086Z,99.90
2017-10-11T23:32:41.312Z,99.90
2017-10-11T23:37:45.290Z,99.90
2017-10-11T23:42:48.478Z,99.90
2017-10-11T23:47:51.662Z,99.90
2017-10-11T23:52:55.616Z,99.90
2017-10-11T23:57:58.819Z,99.90
